createdAt,value
2024-01-05T00:01:44.491Z,1.20
2024-01-05T00:04:16.223Z,0.80
2024-01-05T00:06:48.757Z,1.42
2024-01-05T00:09:19.194Z,1.58
2024-01-05T00:11:50.142Z,1.92
2024-01-05T00:14:22.001Z,0.77
2024-01-05T00:17:09.513Z,0.70
2024-01-05T00:19:42.787Z,1.83
2024-01-05T00:22:39.875Z,1.25
2024-01-05T00:25:14.884Z,0.75
2024-01-05T00:27:47.517Z,1.85
2024-01-05T00:30:16.759Z,1.13
2024-01-05T00:33:08.975Z,2.15
2024-01-05T00:35:38.282Z,5.40
2024-01-05T00:38:09.515Z,2.22
2024-01-05T00:40:42.257Z,1.50
2024-01-05T00:43:15.062Z,2.17
2024-01-05T00:45:46.395Z,3.70
2024-01-05T00:48:22.456Z,2.10
2024-01-05T00:51:12.910Z,2.05
2024-01-05T00:53:48.797Z,2.00
2024-01-05T00:59:09.682Z,3.42
2024-01-05T01:01:45.819Z,2.28
2024-01-05T01:04:38.170Z,2.72
2024-01-05T01:07:07.925Z,2.70
2024-01-05T01:09:42.483Z,5.18
2024-01-05T01:12:12.483Z,2.38
2024-01-05T01:14:41.992Z,2.08
2024-01-05T01:17:11.514Z,2.97
2024-01-05T01:19:44.030Z,2.22
2024-01-05T01:22:13.329Z,2.20
2024-01-05T01:24:43.037Z,4.10
2024-01-05T01:27:12.960Z,3.42
2024-01-05T01:29:43.339Z,3.60
2024-01-05T01:32:18.904Z,5.13
2024-01-05T01:34:48.589Z,3.63
2024-01-05T01:37:25.045Z,4.80
2024-01-05T01:42:52.184Z,2.85
2024-01-05T01:45:42.002Z,7.80
2024-01-05T01:54:10.128Z,3.20
2024-01-05T01:57:07.246Z,2.88
2024-01-05T02:10:51.165Z,6.50
2024-01-05T02:13:21.508Z,4.47
2024-01-05T02:15:55.285Z,2.97
2024-01-05T02:21:50.358Z,3.47
2024-01-05T02:24:23.480Z,4.07
2024-01-05T02:27:19.762Z,5.10
2024-01-05T02:30:12.503Z,4.47
2024-01-05T02:32:44.820Z,5.35
2024-01-05T02:35:36.264Z,5.65
2024-01-05T02:38:12.077Z,6.88
2024-01-05T02:43:33.523Z,7.03
2024-01-05T02:46:06.505Z,5.07
2024-01-05T02:48:38.600Z,6.45
2024-01-05T02:51:52.807Z,5.78
2024-01-05T02:55:21.765Z,5.15
2024-01-05T02:57:53.988Z,6.63
2024-01-05T03:00:46.491Z,4.75
2024-01-05T03:03:21.768Z,6.50
2024-01-05T03:06:14.354Z,3.97
2024-01-05T03:09:13.059Z,4.07
2024-01-05T03:11:44.205Z,4.75
2024-01-05T03:14:17.208Z,4.47
2024-01-05T03:17:37.848Z,4.00
2024-01-05T03:22:59.412Z,7.97
2024-01-05T03:25:30.990Z,7.93
2024-01-05T03:28:02.627Z,9.32
2024-01-05T03:30:35.513Z,6.55
2024-01-05T03:33:22.705Z,4.93
2024-01-05T03:35:56.896Z,10.98
2024-01-05T03:38:30.367Z,7.93
2024-01-05T03:41:04.225Z,12.30
2024-01-05T03:43:36.547Z,6.82
2024-01-05T03:46:32.958Z,12.73
2024-01-05T03:49:23.209Z,6.90
2024-01-05T03:51:53.400Z,12.20
2024-01-05T03:54:27.842Z,8.02
2024-01-05T03:57:00.222Z,14.48
2024-01-05T03:59:35.396Z,22.35
2024-01-05T04:02:44.051Z,26.75
2024-01-05T04:05:23.365Z,18.35
2024-01-05T04:08:20.694Z,21.02
2024-01-05T04:11:08.832Z,13.80
2024-01-05T04:14:01.953Z,16.52
2024-01-05T04:16:36.157Z,9.00
2024-01-05T04:19:10.186Z,12.88
2024-01-05T04:22:02.877Z,10.23
2024-01-05T04:24:38.182Z,9.85
2024-01-05T04:27:30.858Z,14.07
2024-01-05T04:30:01.421Z,15.88
2024-01-05T04:32:35.804Z,9.98
2024-01-05T04:35:09.203Z,9.45
2024-01-05T04:37:44.638Z,12.43
2024-01-05T04:40:59.233Z,9.32
2024-01-05T04:43:29.146Z,5.65
2024-01-05T04:46:25.661Z,11.40
2024-01-05T04:51:56.060Z,7.40
2024-01-05T04:54:29.778Z,6.03
2024-01-05T04:57:00.901Z,10.25
2024-01-05T05:02:28.232Z,11.48
2024-01-05T05:02:45.433Z,7.95
2024-01-05T05:05:24.748Z,3.85
2024-01-05T05:08:09.942Z,5.35
2024-01-05T05:10:42.911Z,5.07
2024-01-05T05:13:16.688Z,8.27
2024-01-05T05:18:39.799Z,6.30
2024-01-05T05:21:12.493Z,8.07
2024-01-05T05:23:42.590Z,6.97
2024-01-05T05:26:16.517Z,7.43
2024-01-05T05:29:19.181Z,9.43
2024-01-05T05:31:41.661Z,8.18
2024-01-05T05:34:15.226Z,6.10
2024-01-05T05:36:50.213Z,7.15
2024-01-05T05:39:41.521Z,4.22
2024-01-05T05:42:15.124Z,4.03
2024-01-05T05:44:48.461Z,4.35
2024-01-05T05:47:38.302Z,4.60
2024-01-05T05:50:16.695Z,4.85
2024-01-05T05:53:06.549Z,7.82
2024-01-05T09:49:19.370Z,21.63
2024-01-05T09:52:08.649Z,32.97
2024-01-05T09:54:58.338Z,26.35
2024-01-05T10:04:04.565Z,28.75
2024-01-05T10:07:03.386Z,23.65
2024-01-05T10:09:55.784Z,27.80
2024-01-05T10:12:44.669Z,36.85
2024-01-05T10:15:33.482Z,24.83
2024-01-05T10:18:25.436Z,31.13
2024-01-05T10:21:14.906Z,23.33
2024-01-05T10:24:05.102Z,22.67
2024-01-05T10:27:06.766Z,33.13
2024-01-05T10:29:58.843Z,27.95
2024-01-05T10:32:47.645Z,30.42
2024-01-05T10:35:37.489Z,30.10
2024-01-05T10:38:26.343Z,27.15
2024-01-05T10:41:15.257Z,43.30
2024-01-05T10:44:08.356Z,21.83
2024-01-05T10:46:57.729Z,30.80
2024-01-05T10:49:51.468Z,26.25
2024-01-05T10:52:45.426Z,29.75
2024-01-05T10:55:37.692Z,18.83
2024-01-05T11:08:02.352Z,31.63
2024-01-05T11:12:08.114Z,37.47
2024-01-05T11:15:39.709Z,27.48
2024-01-05T11:18:38.135Z,30.38
2024-01-05T11:21:54.451Z,27.42
2024-01-05T11:24:48.449Z,20.90
2024-01-05T11:27:40.943Z,25.20
2024-01-05T11:30:44.053Z,26.23
2024-01-05T11:34:22.949Z,24.73
2024-01-05T11:37:45.946Z,23.08
2024-01-05T11:41:04.719Z,25.85
2024-01-05T11:44:37.830Z,30.70
2024-01-05T11:47:52.956Z,20.90
2024-01-05T11:50:44.848Z,27.17
2024-01-05T11:53:42.643Z,22.45
2024-01-05T11:56:40.184Z,27.65
2024-01-05T12:02:31.188Z,26.15
2024-01-05T12:05:33.323Z,29.70
2024-01-05T12:08:23.632Z,20.25
2024-01-05T12:11:26.687Z,27.88
2024-01-05T12:14:48.187Z,24.05
2024-01-05T12:18:37.356Z,20.10
2024-01-05T12:21:24.301Z,14.57
2024-01-05T12:24:41.609Z,23.52
2024-01-05T12:31:04.802Z,24.52
2024-01-05T12:33:58.686Z,24.60
2024-01-05T12:37:26.931Z,27.77
2024-01-05T12:40:16.660Z,27.52
2024-01-05T12:43:18.253Z,20.05
2024-01-05T12:46:08.975Z,20.08
2024-01-05T12:50:19.699Z,18.88
2024-01-05T12:56:39.044Z,22.17
2024-01-05T12:59:36.933Z,20.15
2024-01-05T13:02:32.787Z,16.23
2024-01-05T13:05:32.758Z,19.88
2024-01-05T13:08:26.746Z,20.88
2024-01-05T13:11:18.184Z,17.48
2024-01-05T13:14:20.043Z,21.05
2024-01-05T13:17:12.755Z,17.45
2024-01-05T13:20:06.892Z,13.30
2024-01-05T13:23:10.801Z,16.83
2024-01-05T13:26:20.962Z,12.98
2024-01-05T13:29:17.491Z,16.55
2024-01-05T13:32:15.806Z,15.07
2024-01-05T13:35:14.458Z,21.02
2024-01-05T13:38:07.068Z,19.20
2024-01-05T13:41:08.998Z,17.65
2024-01-05T13:43:58.376Z,20.45
2024-01-05T13:50:22.801Z,15.77
2024-01-05T13:56:37.580Z,15.07
2024-01-05T13:59:34.700Z,19.95
2024-01-05T14:05:21.723Z,20.25
2024-01-05T14:08:23.894Z,12.05
2024-01-05T14:11:21.868Z,12.88
2024-01-05T14:14:16.953Z,10.10
2024-01-05T14:17:11.272Z,8.18
2024-01-05T14:20:11.687Z,21.48
2024-01-05T14:23:04.205Z,13.07
2024-01-05T14:25:53.602Z,8.77
2024-01-05T14:28:53.702Z,15.63
2024-01-05T14:31:50.304Z,11.18
2024-01-05T14:34:47.173Z,14.23
2024-01-05T14:37:41.226Z,13.20
2024-01-05T14:40:36.067Z,9.73
2024-01-05T14:43:38.125Z,10.25
2024-01-05T14:46:34.818Z,11.48
2024-01-05T14:49:26.819Z,16.23
2024-01-05T14:52:18.532Z,11.90
2024-01-05T14:55:16.725Z,12.75
2024-01-05T14:58:17.167Z,15.35
2024-01-05T15:01:11.635Z,10.43
2024-01-05T15:04:14.242Z,14.90
2024-01-05T15:07:27.338Z,10.70
2024-01-05T15:10:56.785Z,8.55
2024-01-05T15:13:52.092Z,10.13
2024-01-05T15:16:46.405Z,10.73
2024-01-05T15:20:02.352Z,9.85
2024-01-05T15:22:57.231Z,10.27
2024-01-05T15:25:56.220Z,10.88
2024-01-05T15:28:49.378Z,14.77
2024-01-05T15:31:47.982Z,11.82
2024-01-05T15:34:42.811Z,14.10
2024-01-05T15:37:40.462Z,14.70
2024-01-05T15:40:39.161Z,8.20
2024-01-05T15:43:28.788Z,13.95
2024-01-05T15:46:32.084Z,9.98
2024-01-05T15:49:25.180Z,11.15
2024-01-05T15:52:17.990Z,5.88
2024-01-05T15:55:23.583Z,10.68
2024-01-05T15:58:57.416Z,8.23
2024-01-05T16:02:20.894Z,8.55
2024-01-05T16:05:22.018Z,10.18
2024-01-05T16:08:14.112Z,15.95
2024-01-05T16:11:12.970Z,8.48
2024-01-05T16:14:08.625Z,7.25
2024-01-05T16:17:01.191Z,11.63
2024-01-05T16:19:59.181Z,4.18
2024-01-05T16:25:49.939Z,6.10
2024-01-05T16:28:46.687Z,6.97
2024-01-05T16:31:45.447Z,6.75
2024-01-05T16:34:38.213Z,8.90
2024-01-05T16:37:36.343Z,7.10
2024-01-05T16:40:37.391Z,8.23
2024-01-05T16:43:29.876Z,4.70
2024-01-05T16:46:26.583Z,10.75
2024-01-05T16:49:19.819Z,7.00
2024-01-05T16:52:18.068Z,5.38
2024-01-05T16:55:12.221Z,7.78
2024-01-05T16:58:11.768Z,11.18
2024-01-05T17:01:03.519Z,7.97
2024-01-05T17:04:03.204Z,7.82
2024-01-05T17:06:55.345Z,6.40
2024-01-05T17:10:00.721Z,8.05
2024-01-05T17:12:50.681Z,7.32
2024-01-05T17:15:51.183Z,6.10
2024-01-05T17:18:41.270Z,5.50
2024-01-05T17:21:43.369Z,8.75
2024-01-05T17:24:38.400Z,5.18
2024-01-05T17:27:31.512Z,4.25
2024-01-05T17:31:01.200Z,8.98
2024-01-05T17:34:10.468Z,11.65
2024-01-05T17:37:17.432Z,7.05
2024-01-05T17:40:28.070Z,10.00
2024-01-05T17:43:24.498Z,6.32
2024-01-05T17:46:24.391Z,7.32
2024-01-05T17:49:22.556Z,6.70
2024-01-05T17:52:15.693Z,6.25
2024-01-05T17:55:11.397Z,9.05
2024-01-05T17:58:08.713Z,8.63
2024-01-05T18:01:08.280Z,8.48
2024-01-05T18:04:01.870Z,11.88
2024-01-05T18:06:34.911Z,9.30
2024-01-05T18:09:04.809Z,5.53
2024-01-05T18:11:35.255Z,9.68
2024-01-05T18:17:00.293Z,4.32
2024-01-05T18:17:22.242Z,10.50
2024-01-05T18:19:57.648Z,6.93
2024-01-05T18:22:33.935Z,6.85
2024-01-05T18:25:05.693Z,1.80
2024-01-05T18:27:56.511Z,7.05
2024-01-05T18:30:25.909Z,6.75
2024-01-05T18:32:57.265Z,8.65
2024-01-05T18:35:30.300Z,7.93
2024-01-05T18:38:02.827Z,8.55
2024-01-05T18:40:34.945Z,7.80
2024-01-05T18:43:25.955Z,5.68
2024-01-05T18:46:17.966Z,6.00
2024-01-05T18:48:50.495Z,8.75
2024-01-05T18:51:23.134Z,7.60
2024-01-05T18:57:16.019Z,6.77
2024-01-05T19:00:16.400Z,12.85
2024-01-05T19:03:10.567Z,10.50
2024-01-05T19:06:01.214Z,11.77
2024-01-05T19:08:34.300Z,8.25
2024-01-05T19:11:07.302Z,9.37
2024-01-05T19:14:00.498Z,5.20
2024-01-05T19:16:31.106Z,5.82
2024-01-05T19:19:01.421Z,5.97
2024-01-05T19:21:46.062Z,9.48
2024-01-05T19:24:30.029Z,7.47
2024-01-05T19:27:01.489Z,10.68
2024-01-05T19:29:31.421Z,5.63
2024-01-05T19:32:00.728Z,10.57
2024-01-05T19:34:33.936Z,2.83
2024-01-05T19:37:03.773Z,9.60
2024-01-05T19:39:38.936Z,7.22
2024-01-05T19:42:10.440Z,12.30
2024-01-05T19:44:40.087Z,14.95
2024-01-05T19:47:09.484Z,9.30
2024-01-05T19:50:34.707Z,6.20
2024-01-05T19:52:40.865Z,6.32
2024-01-05T19:55:11.365Z,6.65
2024-01-05T19:57:40.810Z,4.93
2024-01-05T20:00:12.331Z,8.32
2024-01-05T20:02:41.654Z,12.05
2024-01-05T20:05:12.405Z,4.70
2024-01-05T20:07:47.280Z,8.68
2024-01-05T20:10:37.844Z,4.95
2024-01-05T20:13:12.889Z,6.40
2024-01-05T20:16:09.384Z,7.45
2024-01-05T20:19:22.891Z,7.80
2024-01-05T20:21:56.789Z,7.72
2024-01-05T20:24:32.803Z,11.90
2024-01-05T20:27:23.410Z,8.68
2024-01-05T20:29:52.893Z,6.82
2024-01-05T20:32:27.999Z,7.63
2024-01-05T20:35:00.692Z,4.18
2024-01-05T20:37:32.799Z,8.70
2024-01-05T20:40:26.372Z,6.18
2024-01-05T20:43:01.396Z,6.60
2024-01-05T20:45:49.604Z,11.18
2024-01-05T20:48:23.436Z,6.18
2024-01-05T20:50:53.860Z,7.10
2024-01-05T20:53:57.311Z,10.23
2024-01-05T20:56:44.112Z,8.25
2024-01-05T20:59:17.952Z,7.18
2024-01-05T21:01:53.930Z,8.75
2024-01-05T21:04:48.765Z,7.30
2024-01-05T21:07:37.248Z,7.65
2024-01-05T21:10:11.476Z,7.75
2024-01-05T21:12:41.453Z,7.20
2024-01-05T21:18:33.511Z,11.23
2024-01-05T21:21:07.724Z,8.15
2024-01-05T21:23:37.343Z,7.32
2024-01-05T21:26:08.244Z,8.30
2024-01-05T21:28:37.987Z,7.45
2024-01-05T21:31:10.216Z,6.22
2024-01-05T21:33:40.163Z,8.98
2024-01-05T21:36:15.119Z,7.72
2024-01-05T21:38:45.118Z,9.35
2024-01-05T21:41:20.205Z,10.85
2024-01-05T21:43:49.667Z,11.90
2024-01-05T21:46:19.147Z,7.03
2024-01-05T21:48:50.652Z,7.53
2024-01-05T21:51:20.888Z,11.88
2024-01-05T21:53:51.260Z,8.13
2024-01-05T21:56:25.262Z,10.68
2024-01-05T21:58:55.269Z,9.90
2024-01-05T22:01:28.501Z,11.10
2024-01-05T22:04:14.344Z,14.18
2024-01-05T22:06:53.045Z,13.57
2024-01-05T22:09:22.602Z,10.93
2024-01-05T22:11:52.577Z,9.85
2024-01-05T22:14:23.131Z,10.88
2024-01-05T22:16:54.821Z,8.10
2024-01-05T22:19:27.416Z,14.23
2024-01-05T22:22:19.890Z,12.90
2024-01-05T22:24:53.482Z,10.88
2024-01-05T22:27:24.843Z,11.93
2024-01-05T22:29:53.838Z,8.10
2024-01-05T22:32:25.889Z,17.15
2024-01-05T22:34:55.834Z,16.92
2024-01-05T22:37:28.284Z,9.90
2024-01-05T22:40:00.476Z,9.38
2024-01-05T22:43:35.492Z,13.32
2024-01-05T22:48:29.540Z,11.55
2024-01-05T22:51:39.968Z,8.13
2024-01-05T22:54:14.528Z,7.18
2024-01-05T22:56:44.567Z,7.53
2024-01-05T22:59:14.066Z,11.65
2024-01-05T23:01:43.716Z,12.00
2024-01-05T23:04:13.884Z,15.65
2024-01-05T23:06:44.157Z,9.40
2024-01-05T23:09:17.687Z,11.38
2024-01-05T23:11:50.140Z,16.98
2024-01-05T23:14:45.856Z,12.07
2024-01-05T23:17:15.238Z,11.35
2024-01-05T23:19:48.187Z,10.82
2024-01-05T23:22:17.566Z,11.27
2024-01-05T23:24:51.134Z,9.80
2024-01-05T23:27:40.056Z,10.75
2024-01-05T23:30:12.897Z,14.95
2024-01-05T23:32:43.156Z,9.23
2024-01-05T23:35:15.042Z,13.85
2024-01-05T23:37:44.369Z,12.35
2024-01-05T23:40:16.589Z,16.08
2024-01-05T23:42:48.741Z,17.73
2024-01-05T23:45:19.278Z,10.45
2024-01-05T23:47:55.893Z,8.73
2024-01-05T23:50:25.227Z,7.47
2024-01-05T23:52:56.564Z,12.77
2024-01-05T23:55:46.327Z,8.25
2024-01-05T23:58:19.022Z,11.88
